createdAt,value
2017-12-11T00:08:05.000Z,15.7
2017-12-11T00:18:05.000Z,15.6
2017-12-11T00:28:05.000Z,15.5
2017-12-11T00:38:05.000Z,15.5
2017-12-11T00:48:05.000Z,15.4
2017-12-11T00:58:05.000Z,15.3
2017-12-11T01:08:05.000Z,15.4
2017-12-11T01:18:05.000Z,15.2
2017-12-11T01:28:05.000Z,15.2
2017-12-11T01:38:05.000Z,15.3
2017-12-11T01:48:05.000Z,15.1
2017-12-11T01:58:05.000Z,15.1
2017-12-11T02:08:05.000Z,14.9
2017-12-11T02:18:05.000Z,14.8
2017-12-11T02:28:05.000Z,14.8
2017-12-11T02:38:06.000Z,14.7
2017-12-11T02:48:06.000Z,14.7
2017-12-11T02:58:06.000Z,14.7
2017-12-11T03:08:06.000Z,14.6
2017-12-11T03:18:06.000Z,14.3
2017-12-11T03:28:06.000Z,14.3
2017-12-11T03:38:06.000Z,14.6
2017-12-11T03:48:06.000Z,14.4
2017-12-11T03:58:06.000Z,14.4
2017-12-11T04:08:06.000Z,14.3
2017-12-11T04:18:06.000Z,14.3
2017-12-11T04:28:06.000Z,14.2
2017-12-11T04:38:06.000Z,14.1
2017-12-11T04:48:06.000Z,14.2
2017-12-11T04:58:06.000Z,14.1
2017-12-11T05:08:06.000Z,14
2017-12-11T05:18:06.000Z,13.9
2017-12-11T05:28:06.000Z,13.8
2017-12-11T05:38:06.000Z,13.7
2017-12-11T05:48:06.000Z,13.6
2017-12-11T05:58:06.000Z,13.5
2017-12-11T06:08:06.000Z,13.5
2017-12-11T06:18:06.000Z,13.4
2017-12-11T06:28:06.000Z,13.4
2017-12-11T06:38:06.000Z,13.4
2017-12-11T06:48:06.000Z,13.3
2017-12-11T06:58:06.000Z,13.3
2017-12-11T07:08:06.000Z,13.3
2017-12-11T07:18:06.000Z,13.2
2017-12-11T07:28:06.000Z,13.3
2017-12-11T07:38:06.000Z,13.2
2017-12-11T07:48:06.000Z,13.3
2017-12-11T07:58:06.000Z,13.4
2017-12-11T08:08:06.000Z,13.3
2017-12-11T08:18:06.000Z,13.3
2017-12-11T08:28:06.000Z,13.3
2017-12-11T08:38:06.000Z,14.2
2017-12-11T08:48:06.000Z,15.9
2017-12-11T08:58:06.000Z,16.8
2017-12-11T09:08:07.000Z,17.1
2017-12-11T09:18:11.000Z,17.2
2017-12-11T09:28:06.000Z,17.5
2017-12-11T09:38:06.000Z,17.7
2017-12-11T09:48:06.000Z,17.9
2017-12-11T10:08:07.000Z,18.1
2017-12-11T10:18:07.000Z,18.2
2017-12-11T10:28:10.000Z,18.1
2017-12-11T10:38:07.000Z,18.3
2017-12-11T10:48:07.000Z,18.5
2017-12-11T10:58:07.000Z,18.5
2017-12-11T11:08:07.000Z,18.4
2017-12-11T11:18:07.000Z,18.4
2017-12-11T11:28:07.000Z,18.5
2017-12-11T11:38:07.000Z,18.6
2017-12-11T11:48:07.000Z,18.5
2017-12-11T11:58:07.000Z,18.6
2017-12-11T12:08:07.000Z,18.6
2017-12-11T12:18:07.000Z,18.7
2017-12-11T12:38:07.000Z,18.7
2017-12-11T12:48:07.000Z,18.7
2017-12-11T12:58:07.000Z,18.7
2017-12-11T13:08:07.000Z,18.8
2017-12-11T13:18:07.000Z,18.8
2017-12-11T13:28:07.000Z,18.8
2017-12-11T13:38:07.000Z,18.9
2017-12-11T13:48:08.000Z,18.8
2017-12-11T13:58:07.000Z,18.9
2017-12-11T14:08:07.000Z,18.9
2017-12-11T14:18:07.000Z,18.9
2017-12-11T14:28:07.000Z,18.9
2017-12-11T14:38:07.000Z,18.9
2017-12-11T14:48:07.000Z,18.9
2017-12-11T14:58:07.000Z,19
2017-12-11T15:28:07.000Z,19
2017-12-11T15:38:07.000Z,19
2017-12-11T15:48:07.000Z,19.1
2017-12-11T15:58:07.000Z,19.1
2017-12-11T16:08:07.000Z,19.1
2017-12-11T16:18:07.000Z,19.1
2017-12-11T16:28:07.000Z,19.1
2017-12-11T16:38:07.000Z,19.2
2017-12-11T16:48:07.000Z,19.1
2017-12-11T16:58:11.000Z,19.2
2017-12-11T17:08:08.000Z,19.2
2017-12-11T17:18:08.000Z,19.2
2017-12-11T17:28:08.000Z,19.3
2017-12-11T17:38:08.000Z,19.3
2017-12-11T17:48:08.000Z,19.3
2017-12-11T17:58:08.000Z,19.3
2017-12-11T18:08:08.000Z,19.3
2017-12-11T18:18:08.000Z,19.3
2017-12-11T18:58:08.000Z,19.3
2017-12-11T19:08:08.000Z,19.5
2017-12-11T19:18:08.000Z,19.4
2017-12-11T19:28:08.000Z,19.4
2017-12-11T19:38:08.000Z,19.5
2017-12-11T19:48:08.000Z,19.5
2017-12-11T19:58:08.000Z,19.5
2017-12-11T20:08:08.000Z,19.5
2017-12-11T20:18:08.000Z,19.5
2017-12-11T20:28:10.000Z,19.5
2017-12-11T20:38:08.000Z,19.5
2017-12-11T20:58:08.000Z,19.5
2017-12-11T21:08:08.000Z,19.5
2017-12-11T21:18:08.000Z,19.6
2017-12-11T21:28:08.000Z,19.6
2017-12-11T21:38:09.000Z,19.6
2017-12-11T21:48:08.000Z,19.6
2017-12-11T21:58:08.000Z,19.6
2017-12-11T22:08:08.000Z,19.6
2017-12-11T22:18:08.000Z,19.7
2017-12-11T22:28:08.000Z,19.7
2017-12-11T22:38:08.000Z,19.7
2017-12-11T22:48:08.000Z,19.7
2017-12-11T22:58:08.000Z,19.7
2017-12-11T23:08:08.000Z,19.7
2017-12-11T23:18:08.000Z,19.9
2017-12-11T23:28:08.000Z,19.7
2017-12-11T23:38:08.000Z,19.8
2017-12-11T23:48:08.000Z,19.8
2017-12-11T23:58:09.000Z,19.1
